createdAt,value
2019-03-28T00:05:07.890Z,3.11
2019-03-28T00:07:38.994Z,3.05
2019-03-28T00:10:20.471Z,3.01
2019-03-28T00:13:01.641Z,2.92
2019-03-28T00:15:31.841Z,2.92
2019-03-28T00:18:02.326Z,2.90
2019-03-28T00:23:47.500Z,2.79
2019-03-28T00:26:42.580Z,2.79
2019-03-28T00:29:12.613Z,2.71
2019-03-28T00:31:42.556Z,2.66
2019-03-28T00:34:12.596Z,2.55
2019-03-28T00:42:59.849Z,2.51
2019-03-28T00:45:17.233Z,2.41
2019-03-28T00:47:47.365Z,2.38
2019-03-28T00:53:28.856Z,2.26
2019-03-28T00:55:58.878Z,2.16
2019-03-28T00:58:47.558Z,2.14
2019-03-28T01:01:17.761Z,2.12
2019-03-28T01:03:47.876Z,2.09
2019-03-28T01:06:18.011Z,2.08
2019-03-28T01:08:47.954Z,2.08
2019-03-28T01:11:18.069Z,2.08
2019-03-28T01:14:06.968Z,2.08
2019-03-28T01:16:36.982Z,2.08
2019-03-28T01:19:26.047Z,2.04
2019-03-28T01:21:56.161Z,2.01
2019-03-28T01:24:26.164Z,1.98
2019-03-28T01:26:57.398Z,1.96
2019-03-28T01:29:27.918Z,1.89
2019-03-28T01:32:16.792Z,1.87
2019-03-28T01:34:47.443Z,1.84
2019-03-28T01:37:17.397Z,1.84
2019-03-28T01:39:51.039Z,1.78
2019-03-28T01:42:21.100Z,1.79
2019-03-28T01:44:51.259Z,1.76
2019-03-28T01:47:40.274Z,1.69
2019-03-28T01:50:10.556Z,1.69
2019-03-28T01:52:40.694Z,1.61
2019-03-28T01:55:10.937Z,1.61
2019-03-28T01:57:41.572Z,1.58
2019-03-28T02:00:31.982Z,1.58
2019-03-28T02:03:13.540Z,1.60
2019-03-28T02:05:43.701Z,1.60
2019-03-28T02:08:13.670Z,1.62
2019-03-28T02:10:46.556Z,1.66
2019-03-28T02:15:52.474Z,1.68
2019-03-28T02:18:41.472Z,1.61
2019-03-28T02:21:22.176Z,1.61
2019-03-28T02:23:52.223Z,1.56
2019-03-28T02:26:22.221Z,1.56
2019-03-28T02:28:52.396Z,1.52
2019-03-28T02:31:22.553Z,1.54
2019-03-28T02:33:52.623Z,1.54
2019-03-28T02:36:22.938Z,1.57
2019-03-28T02:38:53.056Z,1.59
2019-03-28T02:41:23.073Z,1.62
2019-03-28T02:43:53.098Z,1.61
2019-03-28T02:46:23.100Z,1.60
2019-03-28T02:48:53.897Z,1.65
2019-03-28T02:54:17.419Z,1.67
2019-03-28T02:56:47.653Z,1.72
2019-03-28T02:59:17.662Z,1.75
2019-03-28T03:01:48.183Z,1.77
2019-03-28T03:04:19.766Z,1.82
2019-03-28T03:09:40.412Z,1.86
2019-03-28T03:12:29.500Z,1.93
2019-03-28T03:15:10.384Z,1.93
2019-03-28T03:17:43.750Z,1.89
2019-03-28T03:20:32.821Z,1.98
2019-03-28T03:23:02.827Z,2.00
2019-03-28T03:25:51.617Z,2.00
2019-03-28T03:28:43.569Z,1.96
2019-03-28T03:31:25.480Z,2.01
2019-03-28T03:34:06.578Z,2.01
2019-03-28T03:36:38.075Z,2.01
2019-03-28T03:39:09.494Z,2.00
2019-03-28T03:41:39.608Z,1.97
2019-03-28T03:44:09.834Z,1.97
2019-03-28T03:47:09.443Z,1.91
2019-03-28T03:49:39.568Z,1.88
2019-03-28T03:52:28.365Z,1.70
2019-03-28T03:55:17.082Z,1.65
2019-03-28T03:58:15.268Z,1.61
2019-03-28T04:00:39.481Z,1.61
2019-03-28T04:03:09.654Z,1.57
2019-03-28T04:05:58.270Z,1.55
2019-03-28T04:08:28.373Z,1.54
2019-03-28T04:10:58.409Z,1.47
2019-03-28T04:13:28.469Z,1.42
2019-03-28T04:18:51.435Z,1.36
2019-03-28T04:21:21.506Z,1.35
2019-03-28T04:23:51.574Z,1.34
2019-03-28T04:28:58.962Z,1.28
2019-03-28T04:31:28.990Z,1.25
2019-03-28T04:37:00.312Z,1.21
2019-03-28T04:39:49.025Z,1.23
2019-03-28T04:42:19.138Z,1.23
2019-03-28T04:44:49.152Z,1.24
2019-03-28T04:47:19.567Z,1.29
2019-03-28T04:50:11.019Z,1.39
2019-03-28T04:52:41.050Z,1.39
2019-03-28T04:55:29.968Z,1.45
2019-03-28T04:58:05.423Z,1.63
2019-03-28T05:00:54.218Z,1.63
2019-03-28T05:03:24.344Z,1.71
2019-03-28T05:06:05.137Z,1.82
2019-03-28T05:08:35.258Z,1.92
2019-03-28T05:14:29.066Z,2.14
2019-03-28T05:16:59.291Z,2.22
2019-03-28T05:19:48.424Z,2.28
2019-03-28T05:22:37.638Z,2.35
2019-03-28T05:25:19.050Z,2.42
2019-03-28T05:27:49.091Z,2.42
2019-03-28T05:30:19.044Z,2.49
2019-03-28T05:32:49.106Z,2.69
2019-03-28T05:35:19.040Z,2.69
2019-03-28T05:37:48.959Z,2.86
2019-03-28T05:40:19.006Z,2.86
2019-03-28T05:42:48.997Z,3.08
2019-03-28T05:45:19.036Z,3.08
2019-03-28T05:47:49.096Z,3.12
2019-03-28T05:50:19.031Z,3.31
2019-03-28T05:52:48.986Z,3.46
2019-03-28T05:55:19.075Z,3.59
2019-03-28T05:57:49.017Z,3.70
2019-03-28T06:00:19.047Z,3.85
2019-03-28T06:02:49.124Z,3.97
2019-03-28T06:05:19.398Z,4.10
2019-03-28T06:07:49.383Z,4.25
2019-03-28T06:10:19.361Z,4.38
2019-03-28T06:12:49.286Z,4.51
2019-03-28T06:18:19.150Z,4.99
2019-03-28T06:23:43.858Z,5.11
2019-03-28T06:26:13.815Z,5.37
2019-03-28T06:28:43.883Z,5.51
2019-03-28T06:31:13.928Z,5.68
2019-03-28T06:34:03.894Z,5.81
2019-03-28T06:36:33.848Z,5.94
2019-03-28T06:39:06.803Z,6.02
2019-03-28T06:41:36.968Z,6.12
2019-03-28T06:44:07.124Z,6.19
2019-03-28T06:46:37.055Z,6.25
2019-03-28T06:49:11.183Z,6.29
2019-03-28T06:54:17.728Z,6.52
2019-03-28T06:56:58.165Z,6.67
2019-03-28T07:02:09.937Z,7.05
2019-03-28T07:04:39.868Z,7.24
2019-03-28T07:07:10.094Z,7.46
2019-03-28T07:09:40.173Z,7.66
2019-03-28T07:12:10.172Z,7.85
2019-03-28T07:14:40.098Z,8.00
2019-03-28T07:17:10.094Z,8.06
2019-03-28T07:19:40.008Z,8.15
2019-03-28T07:22:11.517Z,8.17
2019-03-28T07:25:00.466Z,8.19
2019-03-28T07:30:19.976Z,8.27
2019-03-28T07:33:09.864Z,8.30
2019-03-28T07:35:39.892Z,8.33
2019-03-28T07:38:09.950Z,8.50
2019-03-28T07:40:40.019Z,8.66
2019-03-28T07:43:10.056Z,8.85
2019-03-28T07:45:40.043Z,9.02
2019-03-28T07:48:10.311Z,9.18
2019-03-28T07:50:42.555Z,9.40
2019-03-28T07:53:13.389Z,9.59
2019-03-28T07:55:43.345Z,9.71
2019-03-28T07:58:13.363Z,9.78
2019-03-28T08:00:43.427Z,9.96
2019-03-28T08:03:13.391Z,10.08
2019-03-28T08:05:43.412Z,10.19
2019-03-28T08:08:14.502Z,10.34
2019-03-28T08:10:44.532Z,10.41
2019-03-28T08:13:14.535Z,10.52
2019-03-28T08:18:23.607Z,10.78
2019-03-28T08:21:03.122Z,10.96
2019-03-28T08:23:35.360Z,11.14
2019-03-28T08:26:12.075Z,11.27
2019-03-28T08:29:02.233Z,11.38
2019-03-28T08:31:34.447Z,11.52
2019-03-28T08:37:18.062Z,11.74
2019-03-28T08:39:48.128Z,11.88
2019-03-28T08:42:18.302Z,11.96
2019-03-28T08:45:07.419Z,12.06
2019-03-28T08:47:48.974Z,12.17
2019-03-28T08:50:18.955Z,12.36
2019-03-28T08:53:07.553Z,12.53
2019-03-28T08:55:37.633Z,12.65
2019-03-28T08:58:08.865Z,12.65
2019-03-28T09:00:51.131Z,12.70
2019-03-28T09:03:10.668Z,12.73
2019-03-28T09:05:40.808Z,12.75
2019-03-28T09:08:10.854Z,12.88
2019-03-28T09:10:40.996Z,12.94
2019-03-28T09:13:11.274Z,12.99
2019-03-28T09:15:43.923Z,13.04
2019-03-28T09:18:13.133Z,13.23
2019-03-28T09:23:26.809Z,13.62
2019-03-28T09:28:51.381Z,13.87
2019-03-28T09:31:21.527Z,13.95
2019-03-28T09:33:51.486Z,13.86
2019-03-28T09:36:21.459Z,13.90
2019-03-28T09:39:10.279Z,13.98
2019-03-28T09:44:16.182Z,13.98
2019-03-28T09:49:27.995Z,13.99
2019-03-28T09:54:41.725Z,14.09
2019-03-28T10:00:17.800Z,14.17
2019-03-28T10:02:48.070Z,14.18
2019-03-28T10:05:18.130Z,14.25
2019-03-28T10:07:48.364Z,14.43
2019-03-28T10:10:18.295Z,14.56
2019-03-28T10:12:49.972Z,14.64
2019-03-28T10:15:19.971Z,14.76
2019-03-28T10:17:49.943Z,14.89
2019-03-28T10:26:03.142Z,15.31
2019-03-28T10:28:33.260Z,15.43
2019-03-28T10:31:15.768Z,15.57
2019-03-28T10:33:38.079Z,15.62
2019-03-28T10:36:08.090Z,15.65
2019-03-28T10:38:38.100Z,15.68
2019-03-28T10:41:08.157Z,15.68
2019-03-28T10:43:38.224Z,15.73
2019-03-28T10:46:08.199Z,15.76
2019-03-28T10:48:38.193Z,15.94
2019-03-28T10:54:19.408Z,16.08
2019-03-28T10:56:51.050Z,16.17
2019-03-28T10:59:22.652Z,16.18
2019-03-28T11:01:50.063Z,16.22
2019-03-28T11:04:15.254Z,16.29
2019-03-28T11:06:45.252Z,16.33
2019-03-28T11:12:06.077Z,16.21
2019-03-28T11:14:36.138Z,16.18
2019-03-28T11:17:06.166Z,16.20
2019-03-28T11:19:36.466Z,16.27
2019-03-28T11:22:25.146Z,16.32
2019-03-28T11:24:55.139Z,16.46
2019-03-28T11:27:25.164Z,16.59
2019-03-28T11:29:55.096Z,16.63
2019-03-28T11:32:25.099Z,16.69
2019-03-28T11:34:55.057Z,16.82
2019-03-28T11:37:26.602Z,16.80
2019-03-28T11:39:56.804Z,16.83
2019-03-28T11:42:27.763Z,16.72
2019-03-28T11:47:41.700Z,16.64
2019-03-28T11:50:50.659Z,16.52
2019-03-28T11:53:20.752Z,16.38
2019-03-28T11:55:51.437Z,16.27
2019-03-28T11:58:21.452Z,16.21
2019-03-28T12:01:11.822Z,16.20
2019-03-28T12:03:41.805Z,16.30
2019-03-28T12:06:11.863Z,16.39
2019-03-28T12:08:41.787Z,16.37
2019-03-28T12:11:12.511Z,16.32
2019-03-28T12:13:44.945Z,16.33
2019-03-28T12:16:28.952Z,16.30
2019-03-28T12:18:58.908Z,16.26
2019-03-28T12:21:28.889Z,16.22
2019-03-28T12:23:58.950Z,16.18
2019-03-28T12:29:22.256Z,16.16
2019-03-28T12:31:52.240Z,16.12
2019-03-28T12:34:22.208Z,16.21
2019-03-28T12:36:52.245Z,16.28
2019-03-28T12:39:22.248Z,16.35
2019-03-28T12:41:52.197Z,16.43
2019-03-28T12:44:22.181Z,16.54
2019-03-28T12:46:52.202Z,16.54
2019-03-28T12:49:23.540Z,16.47
2019-03-28T12:51:53.699Z,16.54
2019-03-28T12:54:23.681Z,16.50
2019-03-28T12:56:53.799Z,16.51
2019-03-28T12:59:23.854Z,16.47
2019-03-28T13:01:55.188Z,16.43
2019-03-28T13:07:11.996Z,16.32
2019-03-28T13:09:41.960Z,16.17
2019-03-28T13:12:11.925Z,16.11
2019-03-28T13:14:42.002Z,16.10
2019-03-28T13:17:12.631Z,16.11
2019-03-28T13:22:38.603Z,16.31
2019-03-28T13:25:09.527Z,16.44
2019-03-28T13:27:39.657Z,16.43
2019-03-28T13:30:13.815Z,16.43
2019-03-28T13:32:43.793Z,16.42
2019-03-28T13:35:19.600Z,16.41
2019-03-28T13:37:49.530Z,16.37
2019-03-28T13:40:19.479Z,16.29
2019-03-28T13:42:52.773Z,16.31
2019-03-28T13:48:15.006Z,16.25
2019-03-28T13:50:45.108Z,16.20
2019-03-28T13:53:39.284Z,16.19
2019-03-28T13:59:08.152Z,16.18
2019-03-28T14:01:40.413Z,16.20
2019-03-28T14:04:28.872Z,16.18
2019-03-28T14:07:13.456Z,16.25
2019-03-28T14:09:31.459Z,16.31
2019-03-28T14:21:04.132Z,16.08
2019-03-28T14:23:36.388Z,16.04
2019-03-28T14:26:06.389Z,15.99
2019-03-28T14:29:20.848Z,15.89
2019-03-28T14:31:53.453Z,15.82
2019-03-28T14:34:30.933Z,15.82
2019-03-28T14:37:01.196Z,15.78
2019-03-28T14:42:07.126Z,15.83
2019-03-28T14:47:19.000Z,15.92
2019-03-28T14:49:53.108Z,15.86
2019-03-28T14:52:23.091Z,15.85
2019-03-28T14:54:53.101Z,15.85
2019-03-28T14:57:23.366Z,15.79
2019-03-28T14:59:54.862Z,15.77
2019-03-28T15:02:24.780Z,15.73
2019-03-28T15:05:00.731Z,15.73
2019-03-28T15:07:30.736Z,15.70
2019-03-28T15:10:01.924Z,15.67
2019-03-28T15:12:32.690Z,15.73
2019-03-28T15:15:03.012Z,15.77
2019-03-28T15:17:33.092Z,15.76
2019-03-28T15:20:03.192Z,15.77
2019-03-28T15:22:33.232Z,15.78
2019-03-28T15:25:03.302Z,15.79
2019-03-28T15:27:33.357Z,15.80
2019-03-28T15:30:04.256Z,15.82
2019-03-28T15:32:46.767Z,15.83
2019-03-28T15:35:16.935Z,15.86
2019-03-28T15:37:47.450Z,15.86
2019-03-28T15:40:56.685Z,15.80
2019-03-28T15:43:26.946Z,15.76
2019-03-28T15:45:57.049Z,15.75
2019-03-28T15:48:27.089Z,15.74
2019-03-28T15:50:57.023Z,15.71
2019-03-28T15:53:27.005Z,15.68
2019-03-28T15:55:57.011Z,15.67
2019-03-28T15:58:27.032Z,15.67
2019-03-28T16:00:56.974Z,15.58
2019-03-28T16:03:27.049Z,15.54
2019-03-28T16:05:58.595Z,15.53
2019-03-28T16:08:33.025Z,15.55
2019-03-28T16:11:03.139Z,15.59
2019-03-28T16:13:33.286Z,15.61
2019-03-28T16:16:03.452Z,15.66
2019-03-28T16:18:33.717Z,15.80
2019-03-28T16:21:03.840Z,15.96
2019-03-28T16:23:38.468Z,16.12
2019-03-28T16:26:08.461Z,16.25
2019-03-28T16:28:39.009Z,16.31
2019-03-28T16:31:09.184Z,16.37
2019-03-28T16:33:39.181Z,16.35
2019-03-28T16:36:09.347Z,16.29
2019-03-28T16:38:39.420Z,16.14
2019-03-28T16:41:28.625Z,15.96
2019-03-28T16:43:59.687Z,15.74
2019-03-28T16:46:30.744Z,15.52
2019-03-28T16:49:00.817Z,15.33
2019-03-28T16:51:31.253Z,15.12
2019-03-28T16:54:01.782Z,14.98
2019-03-28T16:56:33.371Z,14.92
2019-03-28T16:59:03.409Z,14.78
2019-03-28T17:01:33.811Z,14.63
2019-03-28T17:04:03.931Z,14.46
2019-03-28T17:10:00.421Z,14.20
2019-03-28T17:12:30.542Z,14.07
2019-03-28T17:15:00.534Z,13.96
2019-03-28T17:17:30.966Z,13.86
2019-03-28T17:20:19.902Z,13.75
2019-03-28T17:22:50.067Z,13.64
2019-03-28T17:25:20.097Z,13.50
2019-03-28T17:27:50.025Z,13.43
2019-03-28T17:30:20.074Z,13.34
2019-03-28T17:32:50.085Z,13.26
2019-03-28T17:35:20.102Z,13.17
2019-03-28T17:37:50.189Z,13.10
2019-03-28T17:40:20.109Z,13.03
2019-03-28T17:42:50.243Z,12.97
2019-03-28T17:45:21.793Z,12.90
2019-03-28T17:56:30.771Z,12.62
2019-03-28T17:59:00.748Z,12.54
2019-03-28T18:01:30.712Z,12.52
2019-03-28T18:04:01.682Z,12.47
2019-03-28T18:06:31.873Z,12.42
2019-03-28T18:09:02.035Z,12.38
2019-03-28T18:11:43.224Z,12.34
2019-03-28T18:17:26.236Z,12.25
2019-03-28T18:19:56.316Z,12.21
2019-03-28T18:22:26.290Z,12.15
2019-03-28T18:24:56.278Z,12.09
2019-03-28T18:27:26.230Z,12.02
2019-03-28T18:32:45.365Z,11.89
2019-03-28T18:35:15.316Z,11.82
2019-03-28T18:37:45.395Z,11.77
2019-03-28T18:40:15.613Z,11.73
2019-03-28T18:42:48.578Z,11.70
2019-03-28T18:45:18.847Z,11.65
2019-03-28T18:47:49.003Z,11.61
2019-03-28T18:50:19.087Z,11.58
2019-03-28T18:52:49.046Z,11.52
2019-03-28T18:55:20.714Z,11.52
2019-03-28T19:00:55.542Z,11.43
2019-03-28T19:03:25.558Z,11.41
2019-03-28T19:05:55.511Z,11.37
2019-03-28T19:08:25.583Z,11.36
2019-03-28T19:10:55.540Z,11.35
2019-03-28T19:13:25.506Z,11.33
2019-03-28T19:15:55.512Z,11.30
2019-03-28T19:18:25.802Z,11.26
2019-03-28T19:20:55.871Z,11.22
2019-03-28T19:23:26.093Z,11.19
2019-03-28T19:25:57.757Z,11.14
2019-03-28T19:28:29.395Z,11.09
2019-03-28T19:31:13.729Z,11.06
2019-03-28T19:33:31.627Z,11.05
2019-03-28T19:36:21.897Z,11.04
2019-03-28T19:39:03.317Z,11.00
2019-03-28T19:42:12.375Z,10.99
2019-03-28T19:44:43.084Z,10.94
2019-03-28T19:47:13.044Z,10.90
2019-03-28T19:49:43.269Z,10.87
2019-03-28T19:52:13.490Z,10.83
2019-03-28T19:54:43.492Z,10.78
2019-03-28T19:57:13.521Z,10.75
2019-03-28T19:59:43.525Z,10.71
2019-03-28T20:02:14.368Z,10.65
2019-03-28T20:04:46.846Z,10.62
2019-03-28T20:07:28.343Z,10.58
2019-03-28T20:09:58.394Z,10.54
2019-03-28T20:12:28.896Z,10.52
2019-03-28T20:15:00.246Z,10.50
2019-03-28T20:17:30.645Z,10.46
2019-03-28T20:20:00.816Z,10.42
2019-03-28T20:22:32.839Z,10.39
2019-03-28T20:25:02.989Z,10.37
2019-03-28T20:27:33.017Z,10.36
2019-03-28T20:30:03.101Z,10.33
2019-03-28T20:32:33.284Z,10.32
2019-03-28T20:35:06.226Z,10.30
2019-03-28T20:45:34.733Z,10.21
2019-03-28T20:48:16.956Z,10.20
2019-03-28T20:50:50.184Z,10.21
2019-03-28T20:56:14.699Z,10.18
2019-03-28T20:58:44.648Z,10.17
2019-03-28T21:04:03.766Z,10.18
2019-03-28T21:06:54.034Z,10.17
2019-03-28T21:09:35.400Z,10.17
2019-03-28T21:14:59.279Z,10.14
2019-03-28T21:17:31.994Z,10.14
2019-03-28T21:20:02.810Z,10.13
2019-03-28T21:22:32.776Z,10.11
2019-03-28T21:25:02.734Z,10.08
2019-03-28T21:27:33.086Z,10.06
2019-03-28T21:32:55.156Z,10.03
2019-03-28T21:35:18.221Z,10.03
2019-03-28T21:37:48.272Z,10.00
2019-03-28T21:40:18.418Z,9.99
2019-03-28T21:42:49.932Z,9.97
2019-03-28T21:45:19.882Z,9.96
2019-03-28T21:47:50.811Z,9.97
2019-03-28T21:50:39.674Z,9.96
2019-03-28T21:53:12.581Z,9.94
2019-03-28T21:55:54.293Z,9.94
2019-03-28T21:58:14.244Z,9.94
2019-03-28T22:00:44.202Z,9.94
2019-03-28T22:03:16.979Z,9.95
2019-03-28T22:05:48.001Z,9.92
2019-03-28T22:11:24.281Z,9.93
2019-03-28T22:13:54.837Z,9.93
2019-03-28T22:16:24.727Z,9.92
2019-03-28T22:18:54.775Z,9.91
2019-03-28T22:21:27.246Z,9.90
2019-03-28T22:23:56.613Z,9.91
2019-03-28T22:29:02.604Z,9.89
2019-03-28T22:31:32.739Z,9.89
2019-03-28T22:34:02.722Z,9.88
2019-03-28T22:36:32.680Z,9.86
2019-03-28T22:39:02.779Z,9.85
2019-03-28T22:41:32.756Z,9.83
2019-03-28T22:44:02.798Z,9.82
2019-03-28T22:49:08.079Z,9.81
2019-03-28T22:51:38.059Z,9.81
2019-03-28T22:54:08.011Z,9.78
2019-03-28T22:56:38.107Z,9.75
2019-03-28T22:59:08.570Z,9.74
2019-03-28T23:01:38.721Z,9.73
2019-03-28T23:04:08.635Z,9.70
2019-03-28T23:06:38.601Z,9.69
2019-03-28T23:09:08.881Z,9.67
2019-03-28T23:11:50.352Z,9.66
2019-03-28T23:14:20.438Z,9.65
2019-03-28T23:16:50.677Z,9.62
2019-03-28T23:19:20.661Z,9.62
2019-03-28T23:21:50.648Z,9.62
2019-03-28T23:24:20.656Z,9.61
2019-03-28T23:26:50.708Z,9.61
2019-03-28T23:29:21.015Z,9.60
2019-03-28T23:31:51.063Z,9.56
2019-03-28T23:34:21.145Z,9.55
2019-03-28T23:36:51.446Z,9.54
2019-03-28T23:39:21.431Z,9.55
2019-03-28T23:41:51.463Z,9.54
2019-03-28T23:44:40.269Z,9.52
2019-03-28T23:47:10.204Z,9.52
2019-03-28T23:49:40.692Z,9.52
2019-03-28T23:52:11.928Z,9.52
2019-03-28T23:54:41.894Z,9.51
2019-03-28T23:57:11.858Z,9.51
2019-03-28T23:59:41.807Z,9.51
